Time;durP1;ratioP1;P1;durP2;ratioP2;P2;SDS_P1;SDS_P2;PMS_P1;PMS_P2;Temp;Humidity;BMP_temperature;BMP_pressure;BME280_temperature;BME280_humidity;BME280_pressure;Samples;Min_cycle;Max_cycle;Signal;HPM_P1;HPM_P2
2021/09/23 00:00:50;;;;;;;26.67;7.72;;;15.80;99.90;;;;;;5034941;28;20033;-87
2021/09/23 00:03:31;;;;;;;33.33;8.40;;;15.90;99.90;;;;;;5036680;28;20115;-86
2021/09/23 00:05:57;;;;;;;31.88;9.13;;;15.80;99.90;;;;;;5049977;28;20120;-87
2021/09/23 00:08:24;;;;;;;34.67;8.27;;;15.80;99.90;;;;;;5049865;28;20036;-87
2021/09/23 00:10:49;;;;;;;34.05;8.70;;;15.70;99.90;;;;;;5033369;28;20017;-87
2021/09/23 00:13:16;;;;;;;31.30;8.82;;;15.70;99.90;;;;;;5033474;28;20025;-87
2021/09/23 00:15:42;;;;;;;44.58;9.90;;;15.60;99.90;;;;;;5054176;28;20021;-86
2021/09/23 00:18:11;;;;;;;37.17;11.05;;;15.60;99.90;;;;;;5054429;28;20017;-86
2021/09/23 00:20:40;;;;;;;30.35;9.55;;;15.60;99.90;;;;;;5053069;28;20485;-87
2021/09/23 00:23:06;;;;;;;28.23;9.48;;;15.70;99.90;;;;;;5053001;28;20036;-85
2021/09/23 00:25:32;;;;;;;33.97;10.15;;;15.60;99.90;;;;;;5037226;28;20044;-86
2021/09/23 00:27:58;;;;;;;39.13;10.95;;;15.70;99.90;;;;;;5032890;28;20021;-86
2021/09/23 00:30:25;;;;;;;41.30;11.43;;;15.70;99.90;;;;;;5032952;28;20021;-86
2021/09/23 00:32:50;;;;;;;37.58;11.93;;;15.70;99.90;;;;;;5034093;28;20076;-85
2021/09/23 00:35:17;;;;;;;29.08;10.93;;;15.70;99.90;;;;;;5043544;28;20052;-85
2021/09/23 00:37:43;;;;;;;38.38;11.75;;;15.60;99.90;;;;;;5053869;28;20450;-86
2021/09/23 00:40:10;;;;;;;30.13;12.32;;;15.70;99.90;;;;;;5052547;28;20029;-85
2021/09/23 00:42:40;;;;;;;36.42;10.70;;;15.70;99.90;;;;;;5052509;28;20032;-87
2021/09/23 00:45:08;;;;;;;31.75;11.00;;;15.70;99.90;;;;;;5045131;28;20033;-86
2021/09/23 00:47:33;;;;;;;24.00;9.93;;;15.70;99.90;;;;;;5032391;28;20055;-85
2021/09/23 00:50:00;;;;;;;24.73;9.55;;;15.80;99.90;;;;;;5046712;28;20029;-86
2021/09/23 00:52:27;;;;;;;31.25;9.23;;;15.90;99.90;;;;;;5052444;28;20401;-85
2021/09/23 00:54:55;;;;;;;29.27;9.02;;;16.00;99.90;;;;;;5051042;28;20493;-85
2021/09/23 00:57:21;;;;;;;42.35;10.88;;;16.00;99.90;;;;;;5053622;28;20029;-86
2021/09/23 00:59:55;;;;;;;28.70;10.63;;;16.10;99.90;;;;;;5052208;28;20032;-86
2021/09/23 01:02:22;;;;;;;23.67;10.25;;;16.00;99.90;;;;;;5053548;28;20021;-86
2021/09/23 01:04:49;;;;;;;29.17;9.52;;;16.10;99.90;;;;;;5053333;28;20025;-86
2021/09/23 01:07:18;;;;;;;42.20;11.35;;;16.10;99.90;;;;;;5032786;28;20021;-86
2021/09/23 01:09:53;;;;;;;28.05;8.85;;;16.10;99.90;;;;;;5032248;28;20025;-85
2021/09/23 01:12:21;;;;;;;31.80;9.93;;;16.00;99.90;;;;;;5033247;28;20056;-85
2021/09/23 01:14:47;;;;;;;22.95;9.13;;;16.10;99.90;;;;;;5033111;28;20497;-84
2021/09/23 01:17:13;;;;;;;29.75;10.93;;;16.30;99.90;;;;;;5047434;28;20425;-86
2021/09/23 01:19:41;;;;;;;38.72;9.93;;;16.20;99.90;;;;;;5053133;28;20474;-86
2021/09/23 01:22:07;;;;;;;37.55;10.07;;;16.20;99.90;;;;;;5053198;28;20103;-85
2021/09/23 01:24:32;;;;;;;37.85;10.05;;;16.20;99.90;;;;;;5051599;28;20076;-87
2021/09/23 01:27:00;;;;;;;40.25;10.15;;;16.10;99.90;;;;;;5041937;28;20044;-86
2021/09/23 01:29:27;;;;;;;45.70;11.63;;;16.20;99.90;;;;;;5031824;28;20105;-86
2021/09/23 01:31:53;;;;;;;41.78;10.88;;;16.20;99.90;;;;;;5031794;28;20028;-86
2021/09/23 01:34:19;;;;;;;33.60;10.20;;;16.20;99.90;;;;;;5032870;28;20083;-85
2021/09/23 01:36:45;;;;;;;34.55;11.15;;;16.20;99.90;;;;;;5038618;28;20489;-85
2021/09/23 01:39:18;;;;;;;31.90;10.77;;;16.00;99.90;;;;;;5043735;28;20039;-85
2021/09/23 01:41:43;;;;;;;36.00;12.15;;;16.20;99.90;;;;;;5051583;28;20024;-86
2021/09/23 01:44:09;;;;;;;39.70;12.07;;;16.10;99.90;;;;;;5051206;28;20043;-87
2021/09/23 01:46:34;;;;;;;36.75;11.82;;;16.20;99.90;;;;;;5050173;28;20025;-86
2021/09/23 01:49:00;;;;;;;43.25;12.43;;;16.10;99.90;;;;;;5031486;28;20378;-86
2021/09/23 01:51:25;;;;;;;54.30;12.50;;;16.20;99.90;;;;;;5035044;28;20048;-86
2021/09/23 01:53:51;;;;;;;39.38;12.35;;;16.20;99.90;;;;;;5051308;28;20017;-85
2021/09/23 01:56:16;;;;;;;35.03;11.10;;;16.20;99.90;;;;;;5052542;28;20032;-85
2021/09/23 01:58:42;;;;;;;34.85;11.55;;;16.10;99.90;;;;;;5034411;28;20030;-85
2021/09/23 02:01:08;;;;;;;53.05;12.38;;;16.10;99.90;;;;;;5032335;28;20060;-87
2021/09/23 02:03:33;;;;;;;51.28;13.23;;;16.10;99.90;;;;;;5031242;28;20136;-85
2021/09/23 02:05:59;;;;;;;48.33;12.52;;;16.10;99.90;;;;;;5030340;28;20486;-86
2021/09/23 02:08:24;;;;;;;44.80;11.70;;;16.20;99.90;;;;;;5041851;28;20091;-87
2021/09/23 02:10:50;;;;;;;45.47;11.40;;;16.10;99.90;;;;;;5052306;28;20017;-85
2021/09/23 02:13:15;;;;;;;37.47;12.30;;;16.10;99.90;;;;;;5052173;28;20131;-87
2021/09/23 02:15:41;;;;;;;50.63;13.05;;;16.10;99.90;;;;;;5051861;28;20048;-86
2021/09/23 02:18:06;;;;;;;39.65;13.25;;;16.20;99.90;;;;;;5046087;28;20100;-89
2021/09/23 02:20:32;;;;;;;47.60;13.85;;;16.10;99.90;;;;;;5031083;28;20040;-85
2021/09/23 02:22:57;;;;;;;53.15;14.18;;;16.00;99.90;;;;;;5030944;28;20083;-86
2021/09/23 02:25:23;;;;;;;43.95;12.40;;;16.00;99.90;;;;;;5030510;28;20045;-87
2021/09/23 02:27:49;;;;;;;39.90;13.30;;;16.10;99.90;;;;;;5030829;28;20060;-86
2021/09/23 02:30:15;;;;;;;58.83;15.05;;;16.00;99.90;;;;;;5051915;28;20017;-85
2021/09/23 02:32:41;;;;;;;54.80;13.85;;;16.10;99.90;;;;;;5051894;28;20500;-85
2021/09/23 02:35:07;;;;;;;51.75;13.50;;;16.30;99.90;;;;;;5050456;28;20021;-86
2021/09/23 02:37:33;;;;;;;48.60;14.40;;;16.20;99.90;;;;;;5051905;28;20166;-86
2021/09/23 02:39:58;;;;;;;54.92;16.08;;;16.20;99.90;;;;;;5050202;28;20025;-84
2021/09/23 02:42:24;;;;;;;42.95;13.70;;;16.10;99.90;;;;;;5051739;28;20029;-85
2021/09/23 02:44:51;;;;;;;42.53;13.18;;;16.10;99.90;;;;;;5050144;28;20116;-86
2021/09/23 02:47:17;;;;;;;52.83;14.68;;;16.10;99.90;;;;;;5051520;28;20029;-85
2021/09/23 02:49:42;;;;;;;45.40;14.40;;;16.10;99.90;;;;;;5039908;28;20040;-85
2021/09/23 02:52:09;;;;;;;39.17;11.88;;;16.10;99.90;;;;;;5030487;28;20482;-86
2021/09/23 02:54:34;;;;;;;53.78;16.15;;;16.10;99.90;;;;;;5031575;28;20022;-87
2021/09/23 02:57:00;;;;;;;38.05;12.15;;;16.10;99.90;;;;;;5030491;28;20508;-86
2021/09/23 02:59:26;;;;;;;44.88;13.55;;;16.10;99.90;;;;;;5031896;28;20516;-88
2021/09/23 03:01:51;;;;;;;41.55;11.25;;;16.10;99.90;;;;;;5030491;28;20030;-86
2021/09/23 03:04:17;;;;;;;55.75;14.05;;;16.00;99.90;;;;;;5030520;28;20072;-85
2021/09/23 03:06:42;;;;;;;44.78;12.48;;;16.00;99.90;;;;;;5031652;28;20034;-86
2021/09/23 03:09:11;;;;;;;54.30;15.65;;;16.00;99.90;;;;;;5031300;28;20025;-85
2021/09/23 03:11:37;;;;;;;37.40;12.35;;;16.00;99.90;;;;;;5032997;28;20037;-85
2021/09/23 03:14:03;;;;;;;48.42;13.95;;;16.00;99.90;;;;;;5039359;28;20030;-86
2021/09/23 03:16:28;;;;;;;48.83;13.98;;;16.10;99.90;;;;;;5052159;28;20029;-86
2021/09/23 03:18:54;;;;;;;61.53;16.27;;;16.10;99.90;;;;;;5054256;28;20033;-86
2021/09/23 03:21:19;;;;;;;51.28;14.77;;;16.10;99.90;;;;;;5038944;28;20040;-84
2021/09/23 03:23:46;;;;;;;59.60;15.35;;;16.10;99.90;;;;;;5033965;28;20033;-86
2021/09/23 03:26:11;;;;;;;54.00;15.57;;;16.10;99.90;;;;;;5033982;28;20034;-85
2021/09/23 03:28:38;;;;;;;56.75;14.70;;;16.20;99.90;;;;;;5034039;28;20026;-85
2021/09/23 03:31:04;;;;;;;48.80;15.07;;;16.20;99.90;;;;;;5044973;28;20032;-85
2021/09/23 03:33:30;;;;;;;57.30;16.88;;;16.20;99.90;;;;;;5055302;28;20025;-86
2021/09/23 03:35:55;;;;;;;64.85;18.88;;;16.20;99.90;;;;;;5053800;28;20428;-85
2021/09/23 03:38:21;;;;;;;47.33;17.45;;;16.20;99.90;;;;;;5055130;28;20029;-86
2021/09/23 03:40:48;;;;;;;62.65;18.58;;;16.20;99.90;;;;;;5050096;28;20028;-86
2021/09/23 03:43:15;;;;;;;64.82;19.88;;;16.10;99.90;;;;;;5033973;28;20029;-86
2021/09/23 03:45:41;;;;;;;80.63;22.58;;;16.20;99.90;;;;;;5034797;28;20034;-86
2021/09/23 03:48:07;;;;;;;60.75;19.75;;;16.10;99.90;;;;;;5034745;28;20030;-87
2021/09/23 03:50:32;;;;;;;71.57;20.80;;;16.10;99.90;;;;;;5034955;28;20029;-85
2021/09/23 03:52:58;;;;;;;61.80;20.15;;;16.20;99.90;;;;;;5054615;28;20461;-86
2021/09/23 03:55:24;;;;;;;76.85;20.35;;;16.20;99.90;;;;;;5053333;28;20430;-85
2021/09/23 03:57:49;;;;;;;58.08;19.40;;;16.20;99.90;;;;;;5053476;28;20024;-87
2021/09/23 04:00:17;;;;;;;69.40;19.50;;;16.20;99.90;;;;;;5053372;28;20036;-86
2021/09/23 04:02:43;;;;;;;66.47;20.92;;;16.20;99.90;;;;;;5039552;28;20030;-86
2021/09/23 04:05:09;;;;;;;78.78;21.13;;;16.20;99.90;;;;;;5034523;28;20075;-86
2021/09/23 04:07:34;;;;;;;58.20;20.50;;;16.20;99.90;;;;;;5033328;28;20078;-86
2021/09/23 04:10:00;;;;;;;54.30;17.15;;;16.20;99.90;;;;;;5033381;28;20113;-86
2021/09/23 04:12:26;;;;;;;74.05;20.75;;;16.00;99.90;;;;;;5042669;28;20032;-86
2021/09/23 04:14:51;;;;;;;56.95;18.85;;;16.00;99.90;;;;;;5052877;28;20055;-86
2021/09/23 04:17:19;;;;;;;61.10;18.60;;;15.90;99.90;;;;;;5054395;28;20029;-87
2021/09/23 04:19:45;;;;;;;68.38;17.65;;;16.00;99.90;;;;;;5054558;28;20036;-86
2021/09/23 04:22:11;;;;;;;69.88;18.52;;;16.00;99.90;;;;;;5049309;28;20030;-87
2021/09/23 04:24:36;;;;;;;61.13;16.80;;;16.00;99.90;;;;;;5032953;28;20026;-87
2021/09/23 04:27:02;;;;;;;70.18;18.65;;;16.00;99.90;;;;;;5033491;28;20479;-86
2021/09/23 04:29:28;;;;;;;71.93;19.35;;;16.00;99.90;;;;;;5031846;28;20083;-86
2021/09/23 04:31:54;;;;;;;74.78;18.58;;;15.90;99.90;;;;;;5034262;28;20390;-87
2021/09/23 04:34:20;;;;;;;81.38;19.95;;;15.90;99.90;;;;;;5051830;28;20393;-86
2021/09/23 04:36:46;;;;;;;60.72;17.60;;;15.90;99.90;;;;;;5052692;28;20025;-85
2021/09/23 04:39:12;;;;;;;65.30;19.38;;;15.90;99.90;;;;;;5054008;28;20428;-85
2021/09/23 04:41:38;;;;;;;57.83;16.95;;;15.80;99.90;;;;;;5053893;28;20096;-85
2021/09/23 04:44:03;;;;;;;55.47;16.27;;;15.90;99.90;;;;;;5039163;28;20068;-86
2021/09/23 04:46:29;;;;;;;70.60;18.38;;;15.70;99.90;;;;;;5033831;28;20029;-86
2021/09/23 04:48:55;;;;;;;65.65;17.05;;;15.60;99.90;;;;;;5033794;28;20044;-85
2021/09/23 04:51:22;;;;;;;51.67;16.45;;;15.70;99.90;;;;;;5033885;28;20037;-86
2021/09/23 04:53:48;;;;;;;65.88;17.40;;;15.70;99.90;;;;;;5041306;28;20028;-86
2021/09/23 04:56:14;;;;;;;71.03;17.70;;;15.60;99.90;;;;;;5053601;28;20044;-85
2021/09/23 04:58:39;;;;;;;72.45;16.27;;;15.70;99.90;;;;;;5052257;28;20115;-86
2021/09/23 05:01:05;;;;;;;66.88;17.30;;;15.70;99.90;;;;;;5052394;28;20033;-86
2021/09/23 05:03:31;;;;;;;68.10;16.30;;;16.00;99.90;;;;;;5047637;28;20486;-86
2021/09/23 05:05:57;;;;;;;59.13;16.83;;;15.80;99.90;;;;;;5032157;28;20445;-85
2021/09/23 05:08:23;;;;;;;63.08;16.38;;;16.00;99.90;;;;;;5033433;28;20029;-85
2021/09/23 05:10:49;;;;;;;77.10;18.25;;;15.90;99.90;;;;;;5033483;28;20018;-85
2021/09/23 05:13:15;;;;;;;75.55;18.48;;;15.90;99.90;;;;;;5032075;28;20022;-86
2021/09/23 05:15:42;;;;;;;67.63;17.33;;;16.00;99.90;;;;;;5048832;28;20035;-87
2021/09/23 05:18:08;;;;;;;53.33;14.23;;;16.00;99.90;;;;;;5031994;28;20430;-85
2021/09/23 05:20:33;;;;;;;58.40;16.45;;;16.00;99.90;;;;;;5033286;28;20072;-84
2021/09/23 05:22:59;;;;;;;70.47;16.92;;;16.10;99.90;;;;;;5032095;28;20022;-85
2021/09/23 05:25:27;;;;;;;59.78;15.07;;;15.90;99.90;;;;;;5045822;28;20661;-86
2021/09/23 05:27:53;;;;;;;52.28;15.30;;;15.90;99.90;;;;;;5051615;28;20031;-85
2021/09/23 05:30:19;;;;;;;82.60;17.88;;;15.90;99.90;;;;;;5053051;28;20082;-86
2021/09/23 05:32:45;;;;;;;69.95;16.27;;;16.00;99.90;;;;;;5051984;28;20017;-86
2021/09/23 05:35:11;;;;;;;59.97;15.18;;;16.00;99.90;;;;;;5049969;28;20028;-88
2021/09/23 05:37:37;;;;;;;65.68;16.27;;;16.00;99.90;;;;;;5052797;28;20032;-86
2021/09/23 05:40:03;;;;;;;74.55;16.30;;;15.90;99.90;;;;;;5053759;28;20017;-86
2021/09/23 05:42:29;;;;;;;59.33;15.93;;;16.00;99.90;;;;;;5051516;28;20552;-86
2021/09/23 05:44:55;;;;;;;71.85;14.25;;;15.80;99.90;;;;;;5048925;28;20083;-86
2021/09/23 05:47:20;;;;;;;50.10;14.82;;;16.00;99.90;;;;;;5031468;28;20029;-84
2021/09/23 05:49:46;;;;;;;48.22;15.85;;;15.80;99.90;;;;;;5032018;28;20022;-86
2021/09/23 05:52:12;;;;;;;38.08;13.57;;;15.90;99.90;;;;;;5031442;28;20401;-84
2021/09/23 05:54:37;;;;;;;34.33;11.68;;;16.00;99.90;;;;;;5032470;28;20096;-85
2021/09/23 05:57:03;;;;;;;48.80;12.98;;;15.90;99.90;;;;;;5045709;28;20025;-86
2021/09/23 05:59:29;;;;;;;36.08;12.40;;;15.80;99.90;;;;;;5051214;28;20079;-87
2021/09/23 06:01:55;;;;;;;32.55;11.40;;;15.90;99.90;;;;;;5048997;28;20021;-86
2021/09/23 06:04:21;;;;;;;28.35;11.32;;;16.10;99.90;;;;;;5051272;28;20020;-85
2021/09/23 06:06:48;;;;;;;32.45;9.98;;;16.20;99.90;;;;;;5050051;28;20489;-88
2021/09/23 06:09:13;;;;;;;31.33;10.63;;;16.20;99.90;;;;;;5050894;28;20037;-87
2021/09/23 06:11:39;;;;;;;28.75;11.27;;;16.40;99.90;;;;;;5050716;28;20167;-86
2021/09/23 06:14:05;;;;;;;24.98;10.70;;;16.30;99.90;;;;;;5050035;28;20393;-85
2021/09/23 06:16:31;;;;;;;35.08;9.70;;;16.40;99.90;;;;;;5042551;28;20032;-86
2021/09/23 06:18:57;;;;;;;25.35;9.38;;;16.20;99.90;;;;;;5031956;28;20033;-86
2021/09/23 06:21:22;;;;;;;31.75;8.93;;;16.40;99.90;;;;;;5030912;28;20478;-87
2021/09/23 06:23:48;;;;;;;45.42;9.13;;;16.40;99.90;;;;;;5031630;28;20397;-86
2021/09/23 06:26:14;;;;;;;33.45;8.43;;;16.50;99.90;;;;;;5032205;28;20033;-87
2021/09/23 06:28:39;;;;;;;33.63;6.88;;;16.40;99.90;;;;;;5030781;28;20061;-86
2021/09/23 06:31:05;;;;;;;31.60;6.32;;;16.40;99.90;;;;;;5030911;28;20025;-87
2021/09/23 06:33:31;;;;;;;30.48;6.43;;;16.50;99.90;;;;;;5030607;28;20029;-86
2021/09/23 06:35:57;;;;;;;34.05;6.40;;;16.50;99.90;;;;;;5031737;28;20022;-86
2021/09/23 06:38:23;;;;;;;37.50;6.28;;;16.40;99.90;;;;;;5047873;28;20532;-86
2021/09/23 06:40:50;;;;;;;24.27;5.40;;;16.40;99.90;;;;;;5050345;28;20052;-87
2021/09/23 06:43:16;;;;;;;32.75;6.05;;;16.40;99.90;;;;;;5050319;28;20063;-86
2021/09/23 06:45:42;;;;;;;33.67;5.90;;;16.40;99.90;;;;;;5050244;28;20466;-85
2021/09/23 06:48:07;;;;;;;27.35;4.50;;;16.30;99.90;;;;;;5038749;28;20037;-87
2021/09/23 06:50:33;;;;;;;30.42;6.03;;;16.40;99.90;;;;;;5038655;28;20029;-87
2021/09/23 06:52:59;;;;;;;32.95;5.05;;;16.50;99.90;;;;;;5050162;28;20065;-87
2021/09/23 06:55:25;;;;;;;18.42;3.85;;;16.40;99.90;;;;;;5051308;28;20025;-87
2021/09/23 06:57:50;;;;;;;25.02;4.07;;;16.50;99.90;;;;;;5049903;28;20028;-86
2021/09/23 07:00:16;;;;;;;27.40;4.97;;;16.50;99.90;;;;;;5050293;28;20025;-88
2021/09/23 07:02:42;;;;;;;27.42;4.30;;;16.50;99.90;;;;;;5050255;28;20044;-87
2021/09/23 07:05:08;;;;;;;21.90;4.25;;;16.40;99.90;;;;;;5051258;28;20021;-86
2021/09/23 07:07:33;;;;;;;27.50;5.45;;;16.50;99.90;;;;;;5047824;28;20120;-87
2021/09/23 07:10:00;;;;;;;20.73;4.25;;;16.50;99.90;;;;;;5031682;28;20138;-85
2021/09/23 07:12:26;;;;;;;19.48;4.43;;;16.60;99.90;;;;;;5030396;28;20112;-87
2021/09/23 07:14:52;;;;;;;29.83;4.65;;;16.60;99.90;;;;;;5031207;28;20124;-88
2021/09/23 07:17:17;;;;;;;23.17;5.30;;;16.40;99.90;;;;;;5030338;28;20489;-87
2021/09/23 07:19:43;;;;;;;22.05;4.78;;;16.60;99.90;;;;;;5048411;28;20133;-86
2021/09/23 07:22:09;;;;;;;25.58;4.30;;;16.40;99.90;;;;;;5050275;28;20083;-88
2021/09/23 07:24:36;;;;;;;20.40;4.38;;;16.60;99.90;;;;;;5049968;28;20035;-87
2021/09/23 07:27:02;;;;;;;28.65;5.60;;;16.60;99.90;;;;;;5050169;28;20071;-87
2021/09/23 07:29:27;;;;;;;32.17;5.15;;;16.60;99.90;;;;;;5037682;28;20053;-87
2021/09/23 07:31:53;;;;;;;21.38;4.60;;;16.60;99.90;;;;;;5030282;28;20033;-87
2021/09/23 07:34:19;;;;;;;29.15;4.53;;;16.50;99.90;;;;;;5031383;28;20404;-85
2021/09/23 07:36:46;;;;;;;22.88;4.80;;;16.50;99.90;;;;;;5031138;28;20026;-86
2021/09/23 07:39:11;;;;;;;26.27;5.25;;;16.60;99.90;;;;;;5036413;28;20021;-86
2021/09/23 07:41:40;;;;;;;33.92;5.68;;;16.70;99.90;;;;;;5049974;28;20501;-87
2021/09/23 07:44:07;;;;;;;28.38;4.55;;;16.60;99.90;;;;;;5050197;28;20067;-88
2021/09/23 07:46:34;;;;;;;31.58;5.85;;;16.70;99.90;;;;;;5051038;28;20100;-86
2021/09/23 07:49:00;;;;;;;22.40;5.03;;;16.80;99.90;;;;;;5047361;28;20104;-86
2021/09/23 07:51:25;;;;;;;35.40;4.53;;;16.70;99.90;;;;;;5047547;28;20082;-87
2021/09/23 07:53:51;;;;;;;33.88;5.32;;;16.80;99.90;;;;;;5045983;28;20083;-85
2021/09/23 07:56:16;;;;;;;26.13;6.20;;;16.60;99.90;;;;;;5043812;28;20021;-86
2021/09/23 07:58:42;;;;;;;42.17;5.43;;;16.60;99.90;;;;;;5050971;28;20376;-86
2021/09/23 08:01:08;;;;;;;31.38;4.80;;;16.60;99.90;;;;;;5042138;28;20022;-84
2021/09/23 08:03:34;;;;;;;30.45;4.88;;;16.70;99.90;;;;;;5046669;28;20623;-83
2021/09/23 08:06:00;;;;;;;23.90;4.60;;;16.60;99.90;;;;;;5049876;28;20082;-85
2021/09/23 08:08:25;;;;;;;27.88;5.57;;;16.70;99.90;;;;;;5049733;28;20045;-84
2021/09/23 08:10:51;;;;;;;33.50;5.35;;;16.70;99.90;;;;;;5050017;28;20021;-84
2021/09/23 08:13:17;;;;;;;33.67;5.03;;;16.60;99.90;;;;;;5045271;28;20064;-86
2021/09/23 08:15:42;;;;;;;25.95;5.75;;;16.50;99.90;;;;;;5045139;28;20108;-85
2021/09/23 08:18:09;;;;;;;31.67;6.88;;;16.50;99.90;;;;;;5050571;28;20025;-84
2021/09/23 08:20:34;;;;;;;27.73;4.72;;;16.70;99.90;;;;;;5048441;28;20044;-85
2021/09/23 08:23:00;;;;;;;40.70;6.18;;;16.60;99.90;;;;;;5046250;28;20525;-86
2021/09/23 08:25:26;;;;;;;33.65;5.15;;;16.60;99.90;;;;;;5048567;28;20040;-85
2021/09/23 08:27:51;;;;;;;39.67;5.78;;;16.60;99.90;;;;;;5048956;28;20020;-86
2021/09/23 08:30:17;;;;;;;32.75;6.03;;;16.80;99.90;;;;;;5049683;28;20032;-83
2021/09/23 08:32:43;;;;;;;42.58;7.53;;;16.70;99.90;;;;;;5050956;28;20072;-82
2021/09/23 08:35:09;;;;;;;35.42;5.60;;;16.70;99.90;;;;;;5049363;28;20551;-83
2021/09/23 08:37:35;;;;;;;28.52;5.35;;;16.70;99.90;;;;;;5047406;28;20053;-85
2021/09/23 08:40:12;;;;;;;50.63;6.38;;;16.70;99.90;;;;;;5047342;28;20029;-87
2021/09/23 08:42:39;;;;;;;37.22;7.07;;;16.80;99.90;;;;;;5050231;28;20493;-83
2021/09/23 08:45:06;;;;;;;33.75;5.75;;;16.90;99.90;;;;;;5048151;28;20025;-83
2021/09/23 08:47:33;;;;;;;31.27;5.65;;;16.80;99.90;;;;;;5041428;28;20117;-85
2021/09/23 08:50:03;;;;;;;37.45;7.00;;;16.70;99.90;;;;;;5051121;28;20069;-85
2021/09/23 08:52:29;;;;;;;39.78;6.32;;;16.80;99.90;;;;;;5052492;28;20017;-86
2021/09/23 08:54:55;;;;;;;35.60;6.00;;;16.90;99.90;;;;;;5052135;28;20087;-83
2021/09/23 08:57:21;;;;;;;42.17;7.68;;;16.80;99.90;;;;;;5052402;28;20032;-85
2021/09/23 08:59:46;;;;;;;35.95;6.22;;;16.80;99.90;;;;;;5040403;28;20029;-84
2021/09/23 09:02:26;;;;;;;34.42;6.00;;;16.90;99.90;;;;;;5033518;28;20482;-85
2021/09/23 09:04:56;;;;;;;41.65;5.93;;;16.80;99.90;;;;;;5033351;28;20490;-87
2021/09/23 09:07:30;;;;;;;35.85;6.63;;;16.80;99.90;;;;;;5033804;28;20029;-85
2021/09/23 09:10:08;;;;;;;42.20;5.90;;;16.70;99.90;;;;;;5044451;28;20071;-84
2021/09/23 09:12:35;;;;;;;35.10;5.53;;;16.80;99.90;;;;;;5053301;28;20025;-83
2021/09/23 09:15:01;;;;;;;50.55;7.72;;;16.90;99.90;;;;;;5052578;28;20389;-82
2021/09/23 09:17:37;;;;;;;37.03;6.78;;;16.90;99.90;;;;;;5053096;28;20032;-82
2021/09/23 09:20:05;;;;;;;41.47;7.55;;;16.90;99.90;;;;;;5043393;28;20029;-82
2021/09/23 09:22:33;;;;;;;34.90;6.65;;;16.90;99.90;;;;;;5037578;28;20036;-83
2021/09/23 09:25:02;;;;;;;38.35;7.15;;;16.90;99.90;;;;;;5052876;28;20020;-82
2021/09/23 09:27:42;;;;;;;38.97;6.75;;;16.80;99.90;;;;;;5052745;28;20036;-83
2021/09/23 09:30:14;;;;;;;41.97;8.50;;;16.80;99.90;;;;;;5044344;28;20060;-81
2021/09/23 09:32:44;;;;;;;29.70;5.10;;;16.80;99.90;;;;;;5044793;28;20021;-82
2021/09/23 09:35:15;;;;;;;26.10;5.10;;;16.80;99.90;;;;;;5052651;28;20037;-84
2021/09/23 09:37:44;;;;;;;43.95;7.35;;;16.70;99.90;;;;;;5052605;28;20039;-86
2021/09/23 09:40:13;;;;;;;50.58;7.45;;;16.90;99.90;;;;;;5046593;28;20418;-82
2021/09/23 09:42:42;;;;;;;41.20;7.18;;;16.80;99.90;;;;;;5032840;28;20021;-80
2021/09/23 09:45:09;;;;;;;31.35;6.38;;;16.70;99.90;;;;;;5025422;28;20027;-82
2021/09/23 09:47:34;;;;;;;49.40;6.57;;;16.30;99.90;;;;;;5052935;28;20032;-81
2021/09/23 09:50:16;;;;;;;40.15;5.75;;;16.10;99.90;;;;;;5070948;28;20040;-82
2021/09/23 09:53:00;;;;;;;33.83;6.47;;;15.90;99.90;;;;;;5041302;28;20059;-81
2021/09/23 09:55:26;;;;;;;;;;;15.70;99.90;;;;;;5031596;28;20029;-80
2021/09/23 09:57:53;;;;;;;36.28;7.18;;;15.70;99.90;;;;;;5032497;28;20370;-80
2021/09/23 10:00:20;;;;;;;36.40;6.88;;;15.50;99.90;;;;;;5032323;28;20508;-81
2021/09/23 10:02:47;;;;;;;28.15;6.50;;;15.60;99.90;;;;;;5031023;28;20029;-82
2021/09/23 10:05:15;;;;;;;40.80;8.98;;;15.50;99.90;;;;;;5032220;28;20028;-81
2021/09/23 10:07:47;;;;;;;39.47;7.90;;;15.50;99.90;;;;;;5032154;28;20100;-81
2021/09/23 10:10:14;;;;;;;33.50;7.28;;;15.50;99.90;;;;;;5030901;28;20025;-82
2021/09/23 10:12:41;;;;;;;38.50;6.53;;;15.50;99.90;;;;;;5048627;28;20029;-82
2021/09/23 10:15:09;;;;;;;37.30;5.95;;;15.50;99.90;;;;;;5051779;28;20468;-82
2021/09/23 10:17:35;;;;;;;37.90;8.23;;;15.60;99.90;;;;;;5050763;28;20112;-82
2021/09/23 10:20:05;;;;;;;57.67;9.05;;;15.60;99.90;;;;;;5050708;28;20053;-82
2021/09/23 10:22:31;;;;;;;38.53;6.38;;;15.70;99.90;;;;;;5044822;28;20728;-81
2021/09/23 10:24:59;;;;;;;53.22;8.65;;;15.70;99.90;;;;;;5050535;28;20115;-80
2021/09/23 10:30:11;;;;;;;53.53;8.57;;;15.90;99.90;;;;;;5051838;28;20098;-82
2021/09/23 10:32:37;;;;;;;38.15;7.35;;;15.90;99.90;;;;;;5042022;28;20028;-82
2021/09/23 10:35:04;;;;;;;39.00;7.15;;;15.90;99.90;;;;;;5045063;28;20025;-82
2021/09/23 10:37:32;;;;;;;43.95;7.00;;;16.00;99.90;;;;;;5050439;28;20021;-83
2021/09/23 10:39:59;;;;;;;37.42;7.38;;;16.10;99.90;;;;;;5051820;28;20029;-82
2021/09/23 10:42:24;;;;;;;55.95;7.15;;;16.10;99.90;;;;;;5046330;28;20033;-81
2021/09/23 10:44:53;;;;;;;52.13;7.13;;;16.10;99.90;;;;;;5031657;28;20398;-82
2021/09/23 10:47:32;;;;;;;45.22;7.93;;;16.20;99.90;;;;;;5031560;28;20066;-81
2021/09/23 10:49:59;;;;;;;37.70;6.88;;;16.30;99.90;;;;;;5030500;28;20033;-81
2021/09/23 10:52:25;;;;;;;40.92;7.95;;;16.30;99.90;;;;;;5034018;28;21506;-81
2021/09/23 10:54:56;;;;;;;42.60;6.03;;;16.30;99.90;;;;;;5050085;28;20047;-81
2021/09/23 10:57:21;;;;;;;38.05;6.68;;;16.20;99.90;;;;;;5051472;28;20477;-83
2021/09/23 10:59:50;;;;;;;55.15;8.30;;;16.20;99.90;;;;;;5050682;28;20033;-82
2021/09/23 11:02:23;;;;;;;59.88;7.90;;;16.30;99.90;;;;;;5050275;28;20037;-81
2021/09/23 11:04:52;;;;;;;37.53;6.63;;;16.30;99.90;;;;;;5030523;28;20068;-82
2021/09/23 11:07:20;;;;;;;39.88;7.10;;;16.30;99.90;;;;;;5030042;28;20490;-82
2021/09/23 11:10:08;;;;;;;33.45;6.55;;;16.30;99.90;;;;;;5031550;28;20029;-82
2021/09/23 11:12:34;;;;;;;45.08;5.60;;;16.30;99.90;;;;;;5030382;28;20070;-82
2021/09/23 11:15:01;;;;;;;42.80;6.15;;;16.30;99.90;;;;;;5029950;28;20092;-82
2021/09/23 11:17:28;;;;;;;47.17;8.02;;;16.40;99.90;;;;;;5031305;28;20036;-82
2021/09/23 11:20:03;;;;;;;40.88;7.45;;;16.20;99.90;;;;;;5031416;28;20033;-83
2021/09/23 11:22:35;;;;;;;40.00;6.75;;;16.20;99.90;;;;;;5031524;28;20018;-82
2021/09/23 11:25:03;;;;;;;36.60;6.25;;;16.40;99.90;;;;;;5046249;28;20184;-82
2021/09/23 11:27:29;;;;;;;43.28;5.72;;;16.30;99.90;;;;;;5051002;28;20120;-81
2021/09/23 11:29:55;;;;;;;32.58;5.32;;;16.30;99.90;;;;;;5051286;28;20147;-81
2021/09/23 11:32:22;;;;;;;44.58;8.00;;;16.20;99.90;;;;;;5049900;28;20435;-82
2021/09/23 11:34:56;;;;;;;34.00;6.85;;;16.20;99.90;;;;;;5049182;28;20083;-82
2021/09/23 11:37:27;;;;;;;;;;;16.10;99.90;;;;;;5051025;28;20496;-82
2021/09/23 11:39:57;;;;;;;37.58;6.60;;;16.10;99.90;;;;;;5053940;28;19909;-82
2021/09/23 11:42:23;;;;;;;41.80;7.60;;;16.20;99.90;;;;;;5055117;28;20020;-81
2021/09/23 11:44:50;;;;;;;38.05;6.45;;;16.20;99.90;;;;;;5046559;28;20026;-81
2021/09/23 11:47:19;;;;;;;42.83;5.35;;;16.10;99.90;;;;;;5034951;28;20075;-82
2021/09/23 11:49:49;;;;;;;42.95;6.32;;;16.20;99.90;;;;;;5047508;28;20486;-82
2021/09/23 11:52:15;;;;;;;38.90;6.13;;;16.20;99.90;;;;;;5054860;28;20029;-81
2021/09/23 11:54:40;;;;;;;50.65;7.97;;;16.20;99.90;;;;;;5049178;28;20024;-82
2021/09/23 11:57:06;;;;;;;39.70;6.68;;;16.10;99.90;;;;;;5054404;28;20037;-82
2021/09/23 11:59:32;;;;;;;38.88;6.95;;;16.00;99.90;;;;;;5053246;28;20386;-82
2021/09/23 12:02:01;;;;;;;50.10;8.32;;;16.00;99.90;;;;;;5054516;28;20032;-81
2021/09/23 12:04:27;;;;;;;55.63;8.95;;;15.80;99.90;;;;;;5053150;28;20029;-80
2021/09/23 12:07:05;;;;;;;44.67;7.05;;;15.80;99.90;;;;;;5033930;28;20121;-81
2021/09/23 12:09:33;;;;;;;33.05;6.38;;;15.80;99.90;;;;;;5034107;28;20087;-80
2021/09/23 12:11:59;;;;;;;51.10;8.45;;;15.80;99.90;;;;;;5033167;28;20063;-82
2021/09/23 12:14:24;;;;;;;32.97;5.88;;;15.70;99.90;;;;;;5032941;28;20398;-80
2021/09/23 12:17:02;;;;;;;32.88;5.20;;;15.50;99.90;;;;;;5035406;28;20036;-79
2021/09/23 12:19:28;;;;;;;25.48;3.58;;;15.10;99.90;;;;;;5034485;28;20053;-81
2021/09/23 12:21:57;;;;;;;25.10;4.65;;;14.90;99.90;;;;;;5034283;28;20064;-82
2021/09/23 12:24:42;;;;;;;42.97;7.53;;;14.60;99.90;;;;;;5032901;28;20378;-80
2021/09/23 12:27:08;;;;;;;38.47;5.22;;;14.30;99.90;;;;;;5049289;28;20033;-81
2021/09/23 12:29:34;;;;;;;58.03;7.38;;;14.30;99.90;;;;;;5052822;28;20028;-81
2021/09/23 12:32:05;;;;;;;53.13;6.45;;;14.20;99.90;;;;;;5054202;28;20025;-80
2021/09/23 12:34:44;;;;;;;49.72;7.28;;;14.10;99.90;;;;;;5052602;28;20025;-81